sensor_id;sensor_type;location;lat;lon;timestamp;P1;durP1;ratioP1;P2;durP2;ratioP2
33740;SDS011;20065;48.380;10.892;2022-07-01T00:00:15;5.43;;;1.53;;
33740;SDS011;20065;48.380;10.892;2022-07-01T00:03:01;4.53;;;1.47;;
33740;SDS011;20065;48.380;10.892;2022-07-01T00:05:49;5.33;;;1.60;;
33740;SDS011;20065;48.380;10.892;2022-07-01T00:08:35;6.40;;;1.40;;
33740;SDS011;20065;48.380;10.892;2022-07-01T00:11:21;6.10;;;1.60;;
33740;SDS011;20065;48.380;10.892;2022-07-01T00:14:08;5.30;;;1.40;;
33740;SDS011;20065;48.380;10.892;2022-07-01T00:16:54;4.80;;;1.50;;
33740;SDS011;20065;48.380;10.892;2022-07-01T00:19:40;5.90;;;1.57;;
33740;SDS011;20065;48.380;10.892;2022-07-01T00:22:26;6.97;;;1.27;;
33740;SDS011;20065;48.380;10.892;2022-07-01T00:25:13;6.30;;;1.50;;
33740;SDS011;20065;48.380;10.892;2022-07-01T00:27:59;4.67;;;1.20;;
33740;SDS011;20065;48.380;10.892;2022-07-01T00:30:45;4.87;;;1.57;;
33740;SDS011;20065;48.380;10.892;2022-07-01T00:33:32;6.10;;;1.57;;
33740;SDS011;20065;48.380;10.892;2022-07-01T00:36:18;5.23;;;1.60;;
33740;SDS011;20065;48.380;10.892;2022-07-01T00:39:04;4.77;;;1.40;;
33740;SDS011;20065;48.380;10.892;2022-07-01T00:41:50;5.43;;;1.50;;
33740;SDS011;20065;48.380;10.892;2022-07-01T00:44:36;4.77;;;1.47;;
33740;SDS011;20065;48.380;10.892;2022-07-01T00:47:23;6.53;;;1.67;;
33740;SDS011;20065;48.380;10.892;2022-07-01T00:50:11;6.90;;;1.60;;
33740;SDS011;20065;48.380;10.892;2022-07-01T00:52:58;5.50;;;1.40;;
33740;SDS011;20065;48.380;10.892;2022-07-01T00:55:44;5.50;;;1.27;;
33740;SDS011;20065;48.380;10.892;2022-07-01T00:58:30;6.77;;;1.27;;
33740;SDS011;20065;48.380;10.892;2022-07-01T01:01:17;5.40;;;1.43;;
33740;SDS011;20065;48.380;10.892;2022-07-01T01:04:04;5.83;;;1.70;;
33740;SDS011;20065;48.380;10.892;2022-07-01T01:06:51;5.83;;;1.30;;
33740;SDS011;20065;48.380;10.892;2022-07-01T01:09:37;5.50;;;1.50;;
33740;SDS011;20065;48.380;10.892;2022-07-01T01:12:24;5.50;;;1.30;;
33740;SDS011;20065;48.380;10.892;2022-07-01T01:15:17;4.50;;;1.13;;
33740;SDS011;20065;48.380;10.892;2022-07-01T01:18:04;4.50;;;1.20;;
33740;SDS011;20065;48.380;10.892;2022-07-01T01:20:54;6.17;;;1.63;;
33740;SDS011;20065;48.380;10.892;2022-07-01T01:23:41;7.97;;;1.57;;
33740;SDS011;20065;48.380;10.892;2022-07-01T01:26:27;5.20;;;1.40;;
33740;SDS011;20065;48.380;10.892;2022-07-01T01:29:13;6.00;;;1.57;;
33740;SDS011;20065;48.380;10.892;2022-07-01T01:32:00;6.17;;;1.93;;
33740;SDS011;20065;48.380;10.892;2022-07-01T01:34:46;4.67;;;1.60;;
33740;SDS011;20065;48.380;10.892;2022-07-01T01:37:32;6.17;;;1.83;;
33740;SDS011;20065;48.380;10.892;2022-07-01T01:40:19;5.27;;;1.67;;
33740;SDS011;20065;48.380;10.892;2022-07-01T01:43:05;5.00;;;1.73;;
33740;SDS011;20065;48.380;10.892;2022-07-01T01:45:51;5.10;;;1.70;;
33740;SDS011;20065;48.380;10.892;2022-07-01T01:48:40;4.87;;;1.70;;
33740;SDS011;20065;48.380;10.892;2022-07-01T01:51:26;5.13;;;1.70;;
33740;SDS011;20065;48.380;10.892;2022-07-01T01:54:13;6.50;;;1.87;;
33740;SDS011;20065;48.380;10.892;2022-07-01T01:56:59;4.90;;;1.70;;
33740;SDS011;20065;48.380;10.892;2022-07-01T01:59:45;5.80;;;1.60;;
33740;SDS011;20065;48.380;10.892;2022-07-01T02:02:31;4.90;;;1.67;;
33740;SDS011;20065;48.380;10.892;2022-07-01T02:05:19;5.20;;;1.93;;
33740;SDS011;20065;48.380;10.892;2022-07-01T02:08:05;6.80;;;1.70;;
33740;SDS011;20065;48.380;10.892;2022-07-01T02:10:51;5.80;;;1.97;;
33740;SDS011;20065;48.380;10.892;2022-07-01T02:13:37;5.43;;;1.70;;
33740;SDS011;20065;48.380;10.892;2022-07-01T02:16:24;6.33;;;2.00;;
33740;SDS011;20065;48.380;10.892;2022-07-01T02:19:10;5.40;;;1.80;;
33740;SDS011;20065;48.380;10.892;2022-07-01T02:21:56;5.10;;;1.90;;
33740;SDS011;20065;48.380;10.892;2022-07-01T02:24:42;5.13;;;1.67;;
33740;SDS011;20065;48.380;10.892;2022-07-01T02:27:29;5.37;;;1.90;;
33740;SDS011;20065;48.380;10.892;2022-07-01T02:30:15;4.97;;;1.60;;
33740;SDS011;20065;48.380;10.892;2022-07-01T02:33:02;4.70;;;1.30;;
33740;SDS011;20065;48.380;10.892;2022-07-01T02:35:49;4.63;;;1.50;;
33740;SDS011;20065;48.380;10.892;2022-07-01T02:38:35;5.57;;;2.00;;
33740;SDS011;20065;48.380;10.892;2022-07-01T02:41:21;5.00;;;1.83;;
33740;SDS011;20065;48.380;10.892;2022-07-01T02:44:08;5.33;;;1.97;;
33740;SDS011;20065;48.380;10.892;2022-07-01T02:46:54;6.43;;;2.20;;
33740;SDS011;20065;48.380;10.892;2022-07-01T02:49:40;5.10;;;1.90;;
33740;SDS011;20065;48.380;10.892;2022-07-01T02:52:27;5.53;;;1.83;;
33740;SDS011;20065;48.380;10.892;2022-07-01T02:55:15;7.07;;;1.90;;
33740;SDS011;20065;48.380;10.892;2022-07-01T02:58:04;5.43;;;1.90;;
33740;SDS011;20065;48.380;10.892;2022-07-01T03:00:50;6.23;;;2.13;;
33740;SDS011;20065;48.380;10.892;2022-07-01T03:03:38;6.00;;;2.20;;
33740;SDS011;20065;48.380;10.892;2022-07-01T03:06:24;6.43;;;1.87;;
33740;SDS011;20065;48.380;10.892;2022-07-01T03:09:10;6.93;;;2.43;;
33740;SDS011;20065;48.380;10.892;2022-07-01T03:11:56;5.50;;;2.00;;
33740;SDS011;20065;48.380;10.892;2022-07-01T03:14:43;5.67;;;2.20;;
33740;SDS011;20065;48.380;10.892;2022-07-01T03:17:30;7.37;;;2.70;;
33740;SDS011;20065;48.380;10.892;2022-07-01T03:20:17;6.93;;;2.87;;
33740;SDS011;20065;48.380;10.892;2022-07-01T03:23:03;6.90;;;3.00;;
33740;SDS011;20065;48.380;10.892;2022-07-01T03:25:49;6.60;;;2.77;;
33740;SDS011;20065;48.380;10.892;2022-07-01T03:28:35;6.60;;;2.93;;
33740;SDS011;20065;48.380;10.892;2022-07-01T03:31:22;7.93;;;2.87;;
33740;SDS011;20065;48.380;10.892;2022-07-01T03:34:08;7.60;;;3.23;;
33740;SDS011;20065;48.380;10.892;2022-07-01T03:36:54;8.57;;;3.30;;
33740;SDS011;20065;48.380;10.892;2022-07-01T03:39:40;6.67;;;3.30;;
33740;SDS011;20065;48.380;10.892;2022-07-01T03:42:27;7.47;;;3.30;;
33740;SDS011;20065;48.380;10.892;2022-07-01T03:45:13;6.40;;;2.60;;
33740;SDS011;20065;48.380;10.892;2022-07-01T03:48:00;7.37;;;3.37;;
33740;SDS011;20065;48.380;10.892;2022-07-01T03:50:47;7.20;;;3.50;;
33740;SDS011;20065;48.380;10.892;2022-07-01T03:53:33;7.63;;;3.77;;
33740;SDS011;20065;48.380;10.892;2022-07-01T03:56:38;9.53;;;4.30;;
33740;SDS011;20065;48.380;10.892;2022-07-01T03:59:27;10.50;;;4.07;;
33740;SDS011;20065;48.380;10.892;2022-07-01T04:02:19;8.17;;;3.60;;
33740;SDS011;20065;48.380;10.892;2022-07-01T04:05:05;6.30;;;3.37;;
33740;SDS011;20065;48.380;10.892;2022-07-01T04:07:51;7.33;;;3.10;;
33740;SDS011;20065;48.380;10.892;2022-07-01T04:10:38;7.40;;;3.40;;
33740;SDS011;20065;48.380;10.892;2022-07-01T04:13:26;7.93;;;3.87;;
33740;SDS011;20065;48.380;10.892;2022-07-01T04:16:12;6.20;;;2.90;;
33740;SDS011;20065;48.380;10.892;2022-07-01T04:18:58;7.30;;;3.00;;
33740;SDS011;20065;48.380;10.892;2022-07-01T04:21:45;6.70;;;3.33;;
33740;SDS011;20065;48.380;10.892;2022-07-01T04:24:49;7.20;;;3.87;;
33740;SDS011;20065;48.380;10.892;2022-07-01T04:27:35;8.17;;;3.53;;
33740;SDS011;20065;48.380;10.892;2022-07-01T04:30:21;8.63;;;3.80;;
33740;SDS011;20065;48.380;10.892;2022-07-01T04:33:08;8.03;;;3.33;;
33740;SDS011;20065;48.380;10.892;2022-07-01T04:35:54;9.47;;;4.30;;
33740;SDS011;20065;48.380;10.892;2022-07-01T04:38:41;6.77;;;3.40;;
33740;SDS011;20065;48.380;10.892;2022-07-01T04:41:27;7.17;;;3.00;;
33740;SDS011;20065;48.380;10.892;2022-07-01T04:44:33;7.90;;;3.37;;
33740;SDS011;20065;48.380;10.892;2022-07-01T04:47:22;7.37;;;3.73;;
33740;SDS011;20065;48.380;10.892;2022-07-01T04:50:09;9.33;;;4.00;;
33740;SDS011;20065;48.380;10.892;2022-07-01T04:52:55;7.23;;;3.80;;
33740;SDS011;20065;48.380;10.892;2022-07-01T04:55:41;8.37;;;3.97;;
33740;SDS011;20065;48.380;10.892;2022-07-01T04:58:27;7.57;;;4.03;;
33740;SDS011;20065;48.380;10.892;2022-07-01T05:01:13;9.13;;;4.87;;
33740;SDS011;20065;48.380;10.892;2022-07-01T05:03:59;9.20;;;4.27;;
33740;SDS011;20065;48.380;10.892;2022-07-01T05:06:46;7.77;;;4.60;;
33740;SDS011;20065;48.380;10.892;2022-07-01T05:09:32;7.70;;;3.70;;
33740;SDS011;20065;48.380;10.892;2022-07-01T05:12:18;9.00;;;2.57;;
33740;SDS011;20065;48.380;10.892;2022-07-01T05:15:06;5.83;;;2.20;;
33740;SDS011;20065;48.380;10.892;2022-07-01T05:17:54;5.83;;;1.90;;
33740;SDS011;20065;48.380;10.892;2022-07-01T05:20:58;7.63;;;2.33;;
33740;SDS011;20065;48.380;10.892;2022-07-01T05:24:03;6.30;;;2.33;;
33740;SDS011;20065;48.380;10.892;2022-07-01T05:26:50;7.60;;;1.77;;
33740;SDS011;20065;48.380;10.892;2022-07-01T05:29:36;6.90;;;2.47;;
33740;SDS011;20065;48.380;10.892;2022-07-01T05:32:22;5.60;;;1.77;;
33740;SDS011;20065;48.380;10.892;2022-07-01T05:35:08;4.90;;;1.70;;
33740;SDS011;20065;48.380;10.892;2022-07-01T05:37:54;5.40;;;2.00;;
33740;SDS011;20065;48.380;10.892;2022-07-01T05:40:41;4.97;;;2.03;;
33740;SDS011;20065;48.380;10.892;2022-07-01T05:43:27;6.03;;;2.30;;
33740;SDS011;20065;48.380;10.892;2022-07-01T05:46:14;5.53;;;2.20;;
33740;SDS011;20065;48.380;10.892;2022-07-01T05:49:00;5.50;;;2.27;;
33740;SDS011;20065;48.380;10.892;2022-07-01T05:51:46;7.00;;;2.03;;
33740;SDS011;20065;48.380;10.892;2022-07-01T05:54:33;5.10;;;1.80;;
33740;SDS011;20065;48.380;10.892;2022-07-01T05:57:19;5.10;;;1.60;;
33740;SDS011;20065;48.380;10.892;2022-07-01T06:00:05;4.70;;;1.40;;
33740;SDS011;20065;48.380;10.892;2022-07-01T06:02:57;4.77;;;1.50;;
33740;SDS011;20065;48.380;10.892;2022-07-01T06:05:43;4.97;;;1.47;;
33740;SDS011;20065;48.380;10.892;2022-07-01T06:08:32;5.93;;;1.60;;
33740;SDS011;20065;48.380;10.892;2022-07-01T06:11:19;5.40;;;1.50;;
33740;SDS011;20065;48.380;10.892;2022-07-01T06:14:05;6.77;;;1.57;;
33740;SDS011;20065;48.380;10.892;2022-07-01T06:16:51;5.73;;;1.50;;
33740;SDS011;20065;48.380;10.892;2022-07-01T06:19:38;7.33;;;1.50;;
33740;SDS011;20065;48.380;10.892;2022-07-01T06:22:24;7.20;;;1.20;;
33740;SDS011;20065;48.380;10.892;2022-07-01T06:25:10;4.83;;;1.50;;
33740;SDS011;20065;48.380;10.892;2022-07-01T06:27:57;5.10;;;1.10;;
33740;SDS011;20065;48.380;10.892;2022-07-01T06:30:43;4.77;;;1.40;;
33740;SDS011;20065;48.380;10.892;2022-07-01T06:33:29;7.17;;;1.93;;
33740;SDS011;20065;48.380;10.892;2022-07-01T06:36:16;5.23;;;1.10;;
33740;SDS011;20065;48.380;10.892;2022-07-01T06:39:02;6.60;;;1.70;;
33740;SDS011;20065;48.380;10.892;2022-07-01T06:41:48;5.53;;;1.20;;
33740;SDS011;20065;48.380;10.892;2022-07-01T06:44:34;4.97;;;1.43;;
33740;SDS011;20065;48.380;10.892;2022-07-01T06:47:20;5.03;;;1.30;;
33740;SDS011;20065;48.380;10.892;2022-07-01T06:50:07;4.60;;;1.20;;
33740;SDS011;20065;48.380;10.892;2022-07-01T06:52:53;6.50;;;1.30;;
33740;SDS011;20065;48.380;10.892;2022-07-01T06:55:39;5.20;;;1.50;;
33740;SDS011;20065;48.380;10.892;2022-07-01T06:58:25;5.20;;;1.50;;
33740;SDS011;20065;48.380;10.892;2022-07-01T07:01:12;5.53;;;1.30;;
33740;SDS011;20065;48.380;10.892;2022-07-01T07:03:58;4.50;;;1.37;;
33740;SDS011;20065;48.380;10.892;2022-07-01T07:06:44;5.47;;;1.80;;
33740;SDS011;20065;48.380;10.892;2022-07-01T07:09:30;5.77;;;1.87;;
33740;SDS011;20065;48.380;10.892;2022-07-01T07:12:16;5.83;;;2.10;;
33740;SDS011;20065;48.380;10.892;2022-07-01T07:15:03;6.97;;;2.53;;
33740;SDS011;20065;48.380;10.892;2022-07-01T07:17:49;5.87;;;2.17;;
33740;SDS011;20065;48.380;10.892;2022-07-01T07:20:36;5.60;;;2.40;;
33740;SDS011;20065;48.380;10.892;2022-07-01T07:23:22;6.50;;;2.60;;
33740;SDS011;20065;48.380;10.892;2022-07-01T07:26:09;6.50;;;2.67;;
33740;SDS011;20065;48.380;10.892;2022-07-01T07:28:55;6.10;;;2.60;;
33740;SDS011;20065;48.380;10.892;2022-07-01T07:31:41;5.87;;;2.83;;
33740;SDS011;20065;48.380;10.892;2022-07-01T07:34:27;5.40;;;2.37;;
33740;SDS011;20065;48.380;10.892;2022-07-01T07:37:13;5.60;;;2.33;;
33740;SDS011;20065;48.380;10.892;2022-07-01T07:40:00;10.30;;;3.00;;
33740;SDS011;20065;48.380;10.892;2022-07-01T07:42:48;6.93;;;3.13;;
33740;SDS011;20065;48.380;10.892;2022-07-01T07:45:34;6.20;;;2.90;;
33740;SDS011;20065;48.380;10.892;2022-07-01T07:48:21;6.30;;;3.13;;
33740;SDS011;20065;48.380;10.892;2022-07-01T07:51:07;10.97;;;3.27;;
33740;SDS011;20065;48.380;10.892;2022-07-01T07:53:53;7.57;;;2.90;;
33740;SDS011;20065;48.380;10.892;2022-07-01T07:56:39;10.27;;;3.50;;
33740;SDS011;20065;48.380;10.892;2022-07-01T07:59:25;7.10;;;2.77;;
33740;SDS011;20065;48.380;10.892;2022-07-01T08:02:11;6.90;;;2.63;;
33740;SDS011;20065;48.380;10.892;2022-07-01T08:04:58;6.90;;;2.80;;
33740;SDS011;20065;48.380;10.892;2022-07-01T08:07:44;7.00;;;3.10;;
33740;SDS011;20065;48.380;10.892;2022-07-01T08:10:30;6.00;;;2.60;;
33740;SDS011;20065;48.380;10.892;2022-07-01T08:13:16;7.20;;;2.70;;
33740;SDS011;20065;48.380;10.892;2022-07-01T08:16:02;5.00;;;2.20;;
33740;SDS011;20065;48.380;10.892;2022-07-01T08:18:49;6.00;;;2.50;;
33740;SDS011;20065;48.380;10.892;2022-07-01T08:21:35;6.80;;;2.10;;
33740;SDS011;20065;48.380;10.892;2022-07-01T08:24:21;6.43;;;2.70;;
33740;SDS011;20065;48.380;10.892;2022-07-01T08:27:08;7.10;;;2.47;;
33740;SDS011;20065;48.380;10.892;2022-07-01T08:29:54;5.90;;;2.90;;
33740;SDS011;20065;48.380;10.892;2022-07-01T08:32:40;6.97;;;2.73;;
33740;SDS011;20065;48.380;10.892;2022-07-01T08:35:27;4.70;;;1.70;;
33740;SDS011;20065;48.380;10.892;2022-07-01T08:38:13;5.93;;;2.07;;
33740;SDS011;20065;48.380;10.892;2022-07-01T08:40:59;5.17;;;2.03;;
33740;SDS011;20065;48.380;10.892;2022-07-01T08:43:46;5.93;;;1.97;;
33740;SDS011;20065;48.380;10.892;2022-07-01T08:46:33;5.13;;;1.57;;
33740;SDS011;20065;48.380;10.892;2022-07-01T08:49:19;7.83;;;2.00;;
33740;SDS011;20065;48.380;10.892;2022-07-01T08:52:07;8.30;;;1.87;;
33740;SDS011;20065;48.380;10.892;2022-07-01T08:54:56;6.70;;;2.00;;
33740;SDS011;20065;48.380;10.892;2022-07-01T08:57:42;6.63;;;1.83;;
33740;SDS011;20065;48.380;10.892;2022-07-01T09:00:29;6.07;;;2.03;;
33740;SDS011;20065;48.380;10.892;2022-07-01T09:03:19;5.33;;;2.40;;
33740;SDS011;20065;48.380;10.892;2022-07-01T09:06:13;4.60;;;1.57;;
33740;SDS011;20065;48.380;10.892;2022-07-01T09:09:11;5.23;;;1.80;;
33740;SDS011;20065;48.380;10.892;2022-07-01T09:12:00;5.67;;;1.60;;
33740;SDS011;20065;48.380;10.892;2022-07-01T09:14:48;5.07;;;2.00;;
33740;SDS011;20065;48.380;10.892;2022-07-01T09:17:37;10.13;;;1.60;;
33740;SDS011;20065;48.380;10.892;2022-07-01T09:20:29;5.03;;;1.67;;
33740;SDS011;20065;48.380;10.892;2022-07-01T09:23:18;4.73;;;1.50;;
33740;SDS011;20065;48.380;10.892;2022-07-01T09:26:04;5.17;;;1.73;;
33740;SDS011;20065;48.380;10.892;2022-07-01T09:28:53;4.80;;;1.60;;
33740;SDS011;20065;48.380;10.892;2022-07-01T09:31:48;4.80;;;1.70;;
33740;SDS011;20065;48.380;10.892;2022-07-01T09:34:36;4.40;;;1.33;;
33740;SDS011;20065;48.380;10.892;2022-07-01T09:37:30;5.83;;;1.60;;
33740;SDS011;20065;48.380;10.892;2022-07-01T09:40:24;4.80;;;1.53;;
33740;SDS011;20065;48.380;10.892;2022-07-01T09:43:17;4.93;;;1.30;;
33740;SDS011;20065;48.380;10.892;2022-07-01T09:46:22;4.50;;;1.40;;
33740;SDS011;20065;48.380;10.892;2022-07-01T09:49:10;4.87;;;1.27;;
33740;SDS011;20065;48.380;10.892;2022-07-01T09:51:56;4.40;;;1.13;;
33740;SDS011;20065;48.380;10.892;2022-07-01T09:54:43;4.50;;;1.40;;
33740;SDS011;20065;48.380;10.892;2022-07-01T09:57:32;5.70;;;1.70;;
33740;SDS011;20065;48.380;10.892;2022-07-01T10:00:19;6.30;;;1.87;;
33740;SDS011;20065;48.380;10.892;2022-07-01T10:03:05;4.50;;;1.40;;
33740;SDS011;20065;48.380;10.892;2022-07-01T10:12:29;5.13;;;1.20;;
33740;SDS011;20065;48.380;10.892;2022-07-01T10:15:43;4.60;;;1.37;;
33740;SDS011;20065;48.380;10.892;2022-07-01T10:18:32;5.60;;;1.10;;
33740;SDS011;20065;48.380;10.892;2022-07-01T10:21:27;4.57;;;1.37;;
33740;SDS011;20065;48.380;10.892;2022-07-01T10:24:16;5.77;;;1.77;;
33740;SDS011;20065;48.380;10.892;2022-07-01T10:27:09;4.23;;;1.20;;
33740;SDS011;20065;48.380;10.892;2022-07-01T10:30:13;5.93;;;1.60;;
33740;SDS011;20065;48.380;10.892;2022-07-01T10:33:01;5.57;;;1.57;;
33740;SDS011;20065;48.380;10.892;2022-07-01T10:35:47;5.63;;;1.30;;
33740;SDS011;20065;48.380;10.892;2022-07-01T10:38:34;4.50;;;1.50;;
33740;SDS011;20065;48.380;10.892;2022-07-01T10:41:24;5.87;;;1.47;;
33740;SDS011;20065;48.380;10.892;2022-07-01T10:44:12;5.17;;;1.40;;
33740;SDS011;20065;48.380;10.892;2022-07-01T10:47:04;5.00;;;1.27;;
33740;SDS011;20065;48.380;10.892;2022-07-01T10:50:13;4.30;;;1.20;;
33740;SDS011;20065;48.380;10.892;2022-07-01T10:53:03;4.20;;;1.10;;
33740;SDS011;20065;48.380;10.892;2022-07-01T10:55:51;4.73;;;1.40;;
33740;SDS011;20065;48.380;10.892;2022-07-01T10:58:39;4.20;;;1.10;;
33740;SDS011;20065;48.380;10.892;2022-07-01T11:01:25;5.53;;;1.27;;
33740;SDS011;20065;48.380;10.892;2022-07-01T11:04:11;4.50;;;1.40;;
33740;SDS011;20065;48.380;10.892;2022-07-01T11:06:57;4.50;;;1.23;;
33740;SDS011;20065;48.380;10.892;2022-07-01T11:09:44;4.43;;;1.37;;
33740;SDS011;20065;48.380;10.892;2022-07-01T11:12:30;5.07;;;1.40;;
33740;SDS011;20065;48.380;10.892;2022-07-01T11:15:21;4.40;;;1.27;;
33740;SDS011;20065;48.380;10.892;2022-07-01T11:18:10;4.83;;;1.40;;
33740;SDS011;20065;48.380;10.892;2022-07-01T11:21:06;5.83;;;1.67;;
33740;SDS011;20065;48.380;10.892;2022-07-01T11:23:54;4.93;;;1.33;;
33740;SDS011;20065;48.380;10.892;2022-07-01T11:26:40;5.00;;;1.60;;
33740;SDS011;20065;48.380;10.892;2022-07-01T11:29:28;4.97;;;1.53;;
33740;SDS011;20065;48.380;10.892;2022-07-01T11:32:23;5.50;;;1.90;;
33740;SDS011;20065;48.380;10.892;2022-07-01T11:35:14;5.77;;;1.70;;
33740;SDS011;20065;48.380;10.892;2022-07-01T11:38:21;4.90;;;1.83;;
33740;SDS011;20065;48.380;10.892;2022-07-01T11:41:29;5.23;;;1.90;;
33740;SDS011;20065;48.380;10.892;2022-07-01T11:44:28;6.50;;;1.93;;
33740;SDS011;20065;48.380;10.892;2022-07-01T11:47:25;7.10;;;2.20;;
33740;SDS011;20065;48.380;10.892;2022-07-01T11:50:11;5.60;;;2.10;;
33740;SDS011;20065;48.380;10.892;2022-07-01T11:52:59;4.83;;;1.70;;
33740;SDS011;20065;48.380;10.892;2022-07-01T11:55:46;5.30;;;2.13;;
33740;SDS011;20065;48.380;10.892;2022-07-01T12:01:34;6.70;;;2.00;;
33740;SDS011;20065;48.380;10.892;2022-07-01T12:04:21;11.30;;;2.20;;
33740;SDS011;20065;48.380;10.892;2022-07-01T12:07:08;6.80;;;2.33;;
33740;SDS011;20065;48.380;10.892;2022-07-01T12:09:56;6.13;;;2.20;;
33740;SDS011;20065;48.380;10.892;2022-07-01T12:12:42;5.33;;;2.00;;
33740;SDS011;20065;48.380;10.892;2022-07-01T12:15:28;7.93;;;1.87;;
33740;SDS011;20065;48.380;10.892;2022-07-01T12:18:15;5.03;;;1.90;;
33740;SDS011;20065;48.380;10.892;2022-07-01T12:21:02;5.40;;;2.20;;
33740;SDS011;20065;48.380;10.892;2022-07-01T12:24:02;5.37;;;1.80;;
33740;SDS011;20065;48.380;10.892;2022-07-01T12:32:32;5.07;;;1.87;;
33740;SDS011;20065;48.380;10.892;2022-07-01T12:35:24;4.83;;;1.87;;
33740;SDS011;20065;48.380;10.892;2022-07-01T12:38:19;5.40;;;2.10;;
33740;SDS011;20065;48.380;10.892;2022-07-01T12:41:48;6.57;;;2.30;;
33740;SDS011;20065;48.380;10.892;2022-07-01T12:44:20;4.90;;;1.80;;
33740;SDS011;20065;48.380;10.892;2022-07-01T12:47:16;8.60;;;2.60;;
33740;SDS011;20065;48.380;10.892;2022-07-01T12:50:13;5.20;;;1.90;;
33740;SDS011;20065;48.380;10.892;2022-07-01T12:55:53;6.27;;;2.00;;
33740;SDS011;20065;48.380;10.892;2022-07-01T12:58:44;5.80;;;2.07;;
33740;SDS011;20065;48.380;10.892;2022-07-01T13:01:36;5.70;;;2.10;;
33740;SDS011;20065;48.380;10.892;2022-07-01T13:04:29;5.63;;;2.63;;
33740;SDS011;20065;48.380;10.892;2022-07-01T13:07:15;5.97;;;2.40;;
33740;SDS011;20065;48.380;10.892;2022-07-01T13:10:01;7.87;;;2.77;;
33740;SDS011;20065;48.380;10.892;2022-07-01T13:12:48;6.97;;;2.87;;
33740;SDS011;20065;48.380;10.892;2022-07-01T13:15:35;5.80;;;2.63;;
33740;SDS011;20065;48.380;10.892;2022-07-01T13:18:22;4.73;;;1.70;;
33740;SDS011;20065;48.380;10.892;2022-07-01T13:21:08;6.20;;;2.30;;
33740;SDS011;20065;48.380;10.892;2022-07-01T13:23:54;5.50;;;2.30;;
33740;SDS011;20065;48.380;10.892;2022-07-01T13:26:42;6.00;;;2.73;;
33740;SDS011;20065;48.380;10.892;2022-07-01T13:29:30;9.20;;;3.50;;
33740;SDS011;20065;48.380;10.892;2022-07-01T13:32:17;6.00;;;2.90;;
33740;SDS011;20065;48.380;10.892;2022-07-01T13:35:03;6.57;;;3.13;;
33740;SDS011;20065;48.380;10.892;2022-07-01T13:37:50;6.80;;;2.97;;
33740;SDS011;20065;48.380;10.892;2022-07-01T13:40:37;7.23;;;3.23;;
33740;SDS011;20065;48.380;10.892;2022-07-01T13:43:23;10.73;;;4.43;;
33740;SDS011;20065;48.380;10.892;2022-07-01T13:46:09;10.20;;;4.07;;
33740;SDS011;20065;48.380;10.892;2022-07-01T13:48:59;6.17;;;2.50;;
33740;SDS011;20065;48.380;10.892;2022-07-01T13:51:46;5.90;;;2.20;;
33740;SDS011;20065;48.380;10.892;2022-07-01T13:54:35;7.63;;;3.03;;
33740;SDS011;20065;48.380;10.892;2022-07-01T13:57:26;6.30;;;3.03;;
33740;SDS011;20065;48.380;10.892;2022-07-01T14:00:12;6.47;;;2.93;;
33740;SDS011;20065;48.380;10.892;2022-07-01T14:02:59;5.73;;;2.20;;
33740;SDS011;20065;48.380;10.892;2022-07-01T14:05:45;6.50;;;3.03;;
33740;SDS011;20065;48.380;10.892;2022-07-01T14:08:35;6.63;;;3.07;;
33740;SDS011;20065;48.380;10.892;2022-07-01T14:11:21;6.70;;;2.70;;
33740;SDS011;20065;48.380;10.892;2022-07-01T14:14:08;5.30;;;1.90;;
33740;SDS011;20065;48.380;10.892;2022-07-01T14:16:54;5.60;;;2.27;;
33740;SDS011;20065;48.380;10.892;2022-07-01T14:19:43;6.87;;;2.20;;
33740;SDS011;20065;48.380;10.892;2022-07-01T14:22:31;5.93;;;1.80;;
33740;SDS011;20065;48.380;10.892;2022-07-01T14:25:17;4.83;;;1.80;;
33740;SDS011;20065;48.380;10.892;2022-07-01T14:28:03;5.20;;;1.60;;
33740;SDS011;20065;48.380;10.892;2022-07-01T14:30:50;4.20;;;1.10;;
33740;SDS011;20065;48.380;10.892;2022-07-01T14:33:37;4.40;;;1.33;;
33740;SDS011;20065;48.380;10.892;2022-07-01T14:36:24;4.43;;;1.30;;
33740;SDS011;20065;48.380;10.892;2022-07-01T14:39:10;5.00;;;1.70;;
33740;SDS011;20065;48.380;10.892;2022-07-01T14:41:56;5.80;;;1.00;;
33740;SDS011;20065;48.380;10.892;2022-07-01T14:44:42;5.07;;;0.90;;
33740;SDS011;20065;48.380;10.892;2022-07-01T14:47:30;4.00;;;0.90;;
33740;SDS011;20065;48.380;10.892;2022-07-01T14:50:17;4.40;;;0.93;;
33740;SDS011;20065;48.380;10.892;2022-07-01T14:53:04;4.13;;;0.93;;
33740;SDS011;20065;48.380;10.892;2022-07-01T14:55:50;4.40;;;1.10;;
33740;SDS011;20065;48.380;10.892;2022-07-01T14:58:36;6.27;;;1.10;;
33740;SDS011;20065;48.380;10.892;2022-07-01T15:01:22;4.93;;;1.13;;
33740;SDS011;20065;48.380;10.892;2022-07-01T15:04:09;3.90;;;0.90;;
33740;SDS011;20065;48.380;10.892;2022-07-01T15:06:56;4.10;;;0.90;;
33740;SDS011;20065;48.380;10.892;2022-07-01T15:09:42;3.87;;;0.60;;
33740;SDS011;20065;48.380;10.892;2022-07-01T15:12:29;3.73;;;0.60;;
33740;SDS011;20065;48.380;10.892;2022-07-01T15:15:15;5.07;;;0.90;;
33740;SDS011;20065;48.380;10.892;2022-07-01T15:18:05;4.07;;;0.90;;
33740;SDS011;20065;48.380;10.892;2022-07-01T15:20:51;3.93;;;0.70;;
33740;SDS011;20065;48.380;10.892;2022-07-01T15:23:38;4.00;;;0.80;;
33740;SDS011;20065;48.380;10.892;2022-07-01T15:26:24;5.43;;;0.60;;
33740;SDS011;20065;48.380;10.892;2022-07-01T15:29:10;3.83;;;0.70;;
33740;SDS011;20065;48.380;10.892;2022-07-01T15:31:58;4.67;;;0.77;;
33740;SDS011;20065;48.380;10.892;2022-07-01T15:34:45;5.70;;;1.00;;
33740;SDS011;20065;48.380;10.892;2022-07-01T15:37:32;4.07;;;0.87;;
33740;SDS011;20065;48.380;10.892;2022-07-01T15:40:18;4.00;;;0.80;;
33740;SDS011;20065;48.380;10.892;2022-07-01T15:43:05;4.77;;;0.80;;
33740;SDS011;20065;48.380;10.892;2022-07-01T15:45:53;4.80;;;0.80;;
33740;SDS011;20065;48.380;10.892;2022-07-01T15:48:39;4.10;;;0.90;;
33740;SDS011;20065;48.380;10.892;2022-07-01T15:51:26;4.00;;;0.80;;
33740;SDS011;20065;48.380;10.892;2022-07-01T15:54:13;4.20;;;0.80;;
33740;SDS011;20065;48.380;10.892;2022-07-01T15:56:59;4.00;;;0.70;;
33740;SDS011;20065;48.380;10.892;2022-07-01T15:59:46;4.40;;;0.90;;
33740;SDS011;20065;48.380;10.892;2022-07-01T16:02:32;4.00;;;0.80;;
33740;SDS011;20065;48.380;10.892;2022-07-01T16:05:19;3.90;;;0.80;;
33740;SDS011;20065;48.380;10.892;2022-07-01T16:08:06;3.90;;;0.70;;
33740;SDS011;20065;48.380;10.892;2022-07-01T16:10:59;4.03;;;0.73;;
33740;SDS011;20065;48.380;10.892;2022-07-01T16:13:55;4.50;;;0.80;;
33740;SDS011;20065;48.380;10.892;2022-07-01T16:16:42;3.80;;;0.67;;
33740;SDS011;20065;48.380;10.892;2022-07-01T16:19:31;4.10;;;0.90;;
33740;SDS011;20065;48.380;10.892;2022-07-01T16:22:18;4.30;;;0.73;;
33740;SDS011;20065;48.380;10.892;2022-07-01T16:25:05;3.80;;;0.60;;
33740;SDS011;20065;48.380;10.892;2022-07-01T16:27:57;4.63;;;0.80;;
33740;SDS011;20065;48.380;10.892;2022-07-01T16:30:44;4.03;;;0.80;;
33740;SDS011;20065;48.380;10.892;2022-07-01T16:33:31;5.27;;;1.00;;
33740;SDS011;20065;48.380;10.892;2022-07-01T16:36:19;3.90;;;0.73;;
33740;SDS011;20065;48.380;10.892;2022-07-01T16:39:16;3.70;;;0.60;;
33740;SDS011;20065;48.380;10.892;2022-07-01T16:42:05;4.90;;;0.87;;
33740;SDS011;20065;48.380;10.892;2022-07-01T16:44:57;3.93;;;0.70;;
33740;SDS011;20065;48.380;10.892;2022-07-01T16:47:48;4.00;;;0.70;;
33740;SDS011;20065;48.380;10.892;2022-07-01T16:50:38;4.40;;;0.90;;
33740;SDS011;20065;48.380;10.892;2022-07-01T16:53:45;5.53;;;1.10;;